createdAt,value
2019-02-10T00:01:42.519Z,97018.97
2019-02-10T00:04:12.115Z,97009.34
2019-02-10T00:06:41.632Z,97017.08
2019-02-10T00:09:11.170Z,97008.76
2019-02-10T00:11:40.704Z,97014.57
2019-02-10T00:14:10.386Z,97021.33
2019-02-10T00:16:39.920Z,97013.37
2019-02-10T00:19:09.450Z,97015.52
2019-02-10T00:21:38.994Z,97021.69
2019-02-10T00:24:08.520Z,97015.30
2019-02-10T00:26:38.144Z,97012.31
2019-02-10T00:29:07.718Z,97007.66
2019-02-10T00:31:37.307Z,96996.88
2019-02-10T00:34:06.901Z,96993.06
2019-02-10T00:36:36.575Z,96991.24
2019-02-10T00:39:09.338Z,96987.27
2019-02-10T00:41:38.945Z,96992.61
2019-02-10T00:44:08.461Z,96981.73
2019-02-10T00:46:37.973Z,96975.56
2019-02-10T00:49:07.478Z,96970.48
2019-02-10T00:51:37.007Z,96970.55
2019-02-10T00:54:06.565Z,96969.61
2019-02-10T00:56:36.112Z,96974.17
2019-02-10T00:59:05.631Z,96961.31
2019-02-10T01:01:35.203Z,96963.45
2019-02-10T01:04:05.273Z,96966.54
2019-02-10T01:06:41.325Z,96961.31
2019-02-10T01:09:07.279Z,96963.66
2019-02-10T01:11:36.837Z,96966.64
2019-02-10T01:14:06.418Z,96960.45
2019-02-10T01:16:36.068Z,96953.62
2019-02-10T01:19:09.759Z,96957.34
2019-02-10T01:21:41.129Z,96949.65
2019-02-10T01:24:10.667Z,96944.48
2019-02-10T01:26:40.209Z,96947.27
2019-02-10T01:29:09.759Z,96935.03
2019-02-10T01:31:39.288Z,96931.69
2019-02-10T01:34:08.900Z,96934.07
2019-02-10T01:36:38.534Z,96932.30
2019-02-10T01:39:15.275Z,96936.25
2019-02-10T01:41:44.872Z,96925.76
2019-02-10T01:44:14.503Z,96925.13
2019-02-10T01:46:44.012Z,96904.73
2019-02-10T01:49:13.534Z,96904.88
2019-02-10T01:51:43.458Z,96907.71
2019-02-10T01:54:12.973Z,96904.98
2019-02-10T01:56:42.546Z,96885.96
2019-02-10T01:59:12.085Z,96887.56
2019-02-10T02:01:41.776Z,96874.38
2019-02-10T02:04:11.323Z,96864.25
2019-02-10T02:06:40.815Z,96861.34
2019-02-10T02:09:13.201Z,96861.95
2019-02-10T02:11:42.773Z,96860.91
2019-02-10T02:14:12.302Z,96864.58
2019-02-10T02:16:41.831Z,96856.48
2019-02-10T02:19:11.345Z,96848.16
2019-02-10T02:21:40.868Z,96842.93
2019-02-10T02:24:10.373Z,96835.70
2019-02-10T02:26:39.930Z,96835.67
2019-02-10T02:29:09.436Z,96828.55
2019-02-10T02:31:38.942Z,96828.77
2019-02-10T02:34:08.431Z,96813.27
2019-02-10T02:36:43.899Z,96814.06
2019-02-10T02:39:13.380Z,96803.02
2019-02-10T02:41:42.885Z,96808.11
2019-02-10T02:44:12.410Z,96807.42
2019-02-10T02:46:42.109Z,96806.47
2019-02-10T02:49:11.672Z,96792.42
2019-02-10T02:51:41.261Z,96798.79
2019-02-10T02:54:10.765Z,96788.14
2019-02-10T02:56:40.269Z,96777.47
2019-02-10T02:59:09.774Z,96779.94
2019-02-10T03:01:39.337Z,96768.65
2019-02-10T03:04:08.942Z,96760.08
2019-02-10T03:06:47.885Z,96752.71
2019-02-10T03:09:17.581Z,96741.92
2019-02-10T03:11:47.858Z,96730.05
2019-02-10T03:14:17.413Z,96734.55
2019-02-10T03:16:47.032Z,96742.45
2019-02-10T03:19:16.532Z,96744.40
2019-02-10T03:21:46.037Z,96736.33
2019-02-10T03:24:15.515Z,96734.05
2019-02-10T03:26:45.039Z,96739.17
2019-02-10T03:29:14.546Z,96735.75
2019-02-10T03:31:44.141Z,96739.67
2019-02-10T03:34:13.707Z,96738.70
2019-02-10T03:36:43.294Z,96741.28
2019-02-10T03:39:12.881Z,96726.99
2019-02-10T03:41:42.390Z,96735.64
2019-02-10T03:44:12.036Z,96727.41
2019-02-10T03:46:41.639Z,96715.06
2019-02-10T03:49:11.113Z,96700.22
2019-02-10T03:51:40.677Z,96682.78
2019-02-10T03:54:10.158Z,96699.50
2019-02-10T03:56:39.779Z,96697.33
2019-02-10T03:59:09.369Z,96701.61
2019-02-10T04:01:38.913Z,96699.50
2019-02-10T04:04:08.375Z,96705.53
2019-02-10T04:06:37.926Z,96700.19
2019-02-10T04:09:07.394Z,96691.16
2019-02-10T04:11:36.899Z,96693.30
2019-02-10T04:14:06.398Z,96687.66
2019-02-10T04:16:35.910Z,96677.20
2019-02-10T04:19:05.530Z,96678.23
2019-02-10T04:21:35.023Z,96659.13
2019-02-10T04:24:04.528Z,96651.66
2019-02-10T04:26:34.056Z,96654.61
2019-02-10T04:29:03.638Z,96653.77
2019-02-10T04:31:33.201Z,96639.30
2019-02-10T04:34:02.781Z,96638.02
2019-02-10T04:36:32.352Z,96633.36
2019-02-10T04:39:01.853Z,96632.26
2019-02-10T04:41:31.380Z,96621.23
2019-02-10T04:44:00.880Z,96607.49
2019-02-10T04:46:30.387Z,96618.88
2019-02-10T04:48:59.980Z,96626.73
2019-02-10T04:51:29.602Z,96616.14
2019-02-10T04:53:59.106Z,96611.87
2019-02-10T04:56:28.609Z,96621.38
2019-02-10T04:58:58.201Z,96621.39
2019-02-10T05:01:27.732Z,96615.69
2019-02-10T05:03:57.338Z,96600.01
2019-02-10T05:06:26.859Z,96606.05
2019-02-10T05:08:56.355Z,96597.39
2019-02-10T05:11:25.843Z,96596.20
2019-02-10T05:13:55.436Z,96592.97
2019-02-10T05:16:24.955Z,96581.45
2019-02-10T05:18:54.517Z,96587.63
2019-02-10T05:21:24.008Z,96561.16
2019-02-10T05:23:53.523Z,96537.41
2019-02-10T05:26:23.057Z,96515.08
2019-02-10T05:28:52.573Z,96505.09
2019-02-10T05:31:22.228Z,96500.36
2019-02-10T05:33:51.712Z,96498.69
2019-02-10T05:36:21.299Z,96505.94
2019-02-10T05:38:50.797Z,96517.09
2019-02-10T05:41:20.298Z,96523.02
2019-02-10T05:43:49.841Z,96503.19
2019-02-10T05:46:19.347Z,96506.14
2019-02-10T05:48:48.835Z,96494.41
2019-02-10T05:51:18.437Z,96493.68
2019-02-10T05:53:48.046Z,96481.57
2019-02-10T05:56:17.543Z,96476.81
2019-02-10T05:58:47.048Z,96474.44
2019-02-10T06:01:52.016Z,96475.39
2019-02-10T06:04:21.526Z,96491.30
2019-02-10T06:06:51.138Z,96499.73
2019-02-10T06:09:20.600Z,96494.02
2019-02-10T06:11:50.162Z,96512.77
2019-02-10T06:14:19.708Z,96489.14
2019-02-10T06:16:49.276Z,96483.20
2019-02-10T06:19:18.759Z,96470.26
2019-02-10T06:21:48.254Z,96465.86
2019-02-10T06:24:17.889Z,96459.33
2019-02-10T06:26:47.385Z,96452.32
2019-02-10T06:29:16.903Z,96442.83
2019-02-10T06:31:46.383Z,96433.94
2019-02-10T06:34:15.934Z,96423.00
2019-02-10T06:36:45.453Z,96394.61
2019-02-10T06:39:14.962Z,96372.14
2019-02-10T06:41:44.480Z,96381.58
2019-02-10T06:44:14.018Z,96368.05
2019-02-10T06:46:43.542Z,96352.61
2019-02-10T06:49:13.488Z,96346.27
2019-02-10T06:51:43.010Z,96356.38
2019-02-10T06:54:12.517Z,96376.27
2019-02-10T06:56:42.001Z,96387.24
2019-02-10T06:59:22.967Z,96389.75
2019-02-10T07:01:59.637Z,96388.20
2019-02-10T07:04:31.004Z,96373.95
2019-02-10T07:07:00.592Z,96361.37
2019-02-10T07:09:30.099Z,96387.03
2019-02-10T07:12:01.323Z,96397.81
2019-02-10T07:14:33.337Z,96387.84
2019-02-10T07:17:31.090Z,96346.79
2019-02-10T07:20:36.503Z,96383.94
2019-02-10T07:24:05.291Z,96407.56
2019-02-10T07:27:04.050Z,96393.58
2019-02-10T07:30:16.436Z,96382.03
2019-02-10T07:32:49.032Z,96383.09
2019-02-10T07:36:00.015Z,96374.66
2019-02-10T07:39:13.498Z,96383.95
2019-02-10T07:42:24.823Z,96403.90
2019-02-10T07:45:31.694Z,96411.02
2019-02-10T07:48:22.464Z,96377.52
2019-02-10T07:51:32.005Z,96339.38
2019-02-10T07:54:26.142Z,96345.92
2019-02-10T07:57:35.845Z,96360.89
2019-02-10T08:00:58.443Z,96370.74
2019-02-10T08:03:50.799Z,96361.48
2019-02-10T08:07:02.033Z,96354.93
2019-02-10T08:09:58.247Z,96334.08
2019-02-10T08:13:10.214Z,96314.58
2019-02-10T08:16:04.891Z,96304.16
2019-02-10T08:18:47.271Z,96300.00
2019-02-10T08:21:39.985Z,96287.94
2019-02-10T08:24:39.427Z,96289.61
2019-02-10T08:27:22.039Z,96283.80
2019-02-10T08:30:40.400Z,96274.28
2019-02-10T08:33:43.029Z,96271.89
2019-02-10T08:36:53.899Z,96262.73
2019-02-10T08:40:03.967Z,96267.48
2019-02-10T08:42:48.293Z,96279.73
2019-02-10T08:45:39.365Z,96316.23
2019-02-10T08:48:48.734Z,96321.05
2019-02-10T08:52:10.500Z,96303.85
2019-02-10T08:54:40.013Z,96292.70
2019-02-10T08:57:09.562Z,96296.66
2019-02-10T08:59:39.044Z,96284.13
2019-02-10T09:02:08.581Z,96287.95
2019-02-10T09:04:38.098Z,96294.42
2019-02-10T09:07:07.962Z,96242.86
2019-02-10T09:09:37.442Z,96248.09
2019-02-10T09:12:06.915Z,96268.47
2019-02-10T09:14:36.520Z,96261.58
2019-02-10T09:17:06.107Z,96255.41
2019-02-10T09:19:35.705Z,96245.53
2019-02-10T09:22:05.280Z,96244.47
2019-02-10T09:24:34.789Z,96265.98
2019-02-10T09:27:04.271Z,96208.74
2019-02-10T09:29:33.765Z,96207.09
2019-02-10T09:32:03.356Z,96200.94
2019-02-10T09:34:32.842Z,96175.41
2019-02-10T09:37:02.346Z,96201.98
2019-02-10T09:39:31.868Z,96204.87
2019-02-10T09:42:01.435Z,96201.25
2019-02-10T09:44:30.921Z,96205.44
2019-02-10T09:47:00.415Z,96196.28
2019-02-10T09:49:29.894Z,96181.01
2019-02-10T09:51:59.396Z,96163.84
2019-02-10T09:54:28.876Z,96137.89
2019-02-10T09:56:58.380Z,96142.24
2019-02-10T09:59:27.865Z,96094.45
2019-02-10T10:01:57.367Z,96090.93
2019-02-10T10:04:26.863Z,96086.37
2019-02-10T10:06:56.330Z,96086.94
2019-02-10T10:09:25.821Z,96086.89
2019-02-10T10:11:55.319Z,96077.66
2019-02-10T10:14:30.717Z,96080.91
2019-02-10T10:16:56.082Z,96083.79
2019-02-10T10:19:25.632Z,96074.97
2019-02-10T10:21:55.180Z,96071.38
2019-02-10T10:24:24.694Z,96056.27
2019-02-10T10:26:54.184Z,96054.07
2019-02-10T10:29:23.687Z,96045.66
2019-02-10T10:31:53.167Z,96059.78
2019-02-10T10:34:22.684Z,96044.33
2019-02-10T10:36:52.202Z,96041.60
2019-02-10T10:39:27.207Z,96026.89
2019-02-10T10:41:52.876Z,96008.24
2019-02-10T10:44:22.832Z,95989.11
2019-02-10T10:46:52.349Z,95982.12
2019-02-10T10:49:21.879Z,95987.66
2019-02-10T10:51:51.359Z,95970.30
2019-02-10T10:54:20.858Z,95969.34
2019-02-10T10:56:50.364Z,95956.90
2019-02-10T10:59:19.922Z,95951.02
2019-02-10T11:01:49.369Z,95952.35
2019-02-10T11:04:18.984Z,95935.52
2019-02-10T11:06:48.507Z,95932.25
2019-02-10T11:09:17.984Z,95928.66
2019-02-10T11:11:47.476Z,95918.27
2019-02-10T11:14:16.967Z,95915.22
2019-02-10T11:16:46.499Z,95917.42
2019-02-10T11:19:15.975Z,95912.84
2019-02-10T11:21:45.476Z,95917.03
2019-02-10T11:24:14.997Z,95924.64
2019-02-10T11:26:44.506Z,95925.34
2019-02-10T11:29:14.029Z,95924.88
2019-02-10T11:31:43.513Z,95918.52
2019-02-10T11:34:13.074Z,95915.77
2019-02-10T11:36:42.564Z,95902.79
2019-02-10T11:39:12.066Z,95887.56
2019-02-10T11:41:41.589Z,95881.63
2019-02-10T11:44:11.175Z,95866.95
2019-02-10T11:46:40.669Z,95861.06
2019-02-10T11:49:10.175Z,95844.30
2019-02-10T11:51:39.674Z,95845.80
2019-02-10T11:54:09.154Z,95838.09
2019-02-10T11:56:38.657Z,95825.42
2019-02-10T11:59:08.251Z,95820.19
2019-02-10T12:01:37.753Z,95808.86
2019-02-10T12:04:07.304Z,95822.87
2019-02-10T12:06:36.801Z,95822.24
2019-02-10T12:09:06.820Z,95826.50
2019-02-10T12:11:36.372Z,95813.66
2019-02-10T12:14:05.972Z,95803.28
2019-02-10T12:16:35.482Z,95792.41
2019-02-10T12:19:05.044Z,95782.38
2019-02-10T12:21:34.587Z,95777.43
2019-02-10T12:24:04.199Z,95769.38
2019-02-10T12:26:33.706Z,95757.84
2019-02-10T12:29:03.226Z,95753.23
2019-02-10T12:31:32.734Z,95732.37
2019-02-10T12:34:02.250Z,95714.75
2019-02-10T12:36:31.856Z,95718.05
2019-02-10T12:39:01.351Z,95705.22
2019-02-10T12:41:30.873Z,95694.36
2019-02-10T12:44:00.399Z,95693.05
2019-02-10T12:46:29.964Z,95690.08
2019-02-10T12:48:59.457Z,95673.63
2019-02-10T12:51:28.992Z,95670.17
2019-02-10T12:53:58.567Z,95656.19
2019-02-10T12:56:28.128Z,95642.21
2019-02-10T12:58:57.722Z,95631.02
2019-02-10T13:01:27.722Z,95638.09
2019-02-10T13:03:57.238Z,95623.28
2019-02-10T13:06:26.744Z,95631.02
2019-02-10T13:08:56.224Z,95619.19
2019-02-10T13:11:25.760Z,95603.23
2019-02-10T13:13:55.262Z,95605.88
2019-02-10T13:16:24.774Z,95609.33
2019-02-10T13:18:54.347Z,95602.09
2019-02-10T13:21:23.827Z,95598.81
2019-02-10T13:23:53.300Z,95590.27
2019-02-10T13:26:22.801Z,95584.67
2019-02-10T13:28:52.403Z,95586.64
2019-02-10T13:31:21.925Z,95582.53
2019-02-10T13:33:51.428Z,95570.70
2019-02-10T13:36:20.912Z,95561.49
2019-02-10T13:38:50.383Z,95554.75
2019-02-10T13:41:19.886Z,95557.22
2019-02-10T13:43:49.340Z,95558.70
2019-02-10T13:46:18.835Z,95561.50
2019-02-10T13:48:48.319Z,95549.53
2019-02-10T13:51:17.825Z,95557.09
2019-02-10T13:53:47.282Z,95555.29
2019-02-10T13:56:16.762Z,95570.09
2019-02-10T13:58:46.244Z,95567.30
2019-02-10T14:01:15.722Z,95566.31
2019-02-10T14:03:45.210Z,95548.40
2019-02-10T14:06:14.743Z,95554.64
2019-02-10T14:08:44.241Z,95538.05
2019-02-10T14:11:13.712Z,95542.13
2019-02-10T14:13:43.231Z,95530.95
2019-02-10T14:16:12.701Z,95524.87
2019-02-10T14:18:42.273Z,95527.16
2019-02-10T14:21:11.827Z,95528.98
2019-02-10T14:23:41.290Z,95538.83
2019-02-10T14:26:10.753Z,95535.55
2019-02-10T14:28:40.245Z,95529.47
2019-02-10T14:31:09.672Z,95513.53
2019-02-10T14:33:39.286Z,95518.79
2019-02-10T14:36:08.685Z,95506.80
2019-02-10T14:38:38.180Z,95509.09
2019-02-10T14:41:07.736Z,95503.67
2019-02-10T14:43:37.237Z,95512.88
2019-02-10T14:46:06.818Z,95520.43
2019-02-10T14:48:36.316Z,95530.45
2019-02-10T14:51:05.780Z,95535.88
2019-02-10T14:53:35.257Z,95533.90
2019-02-10T14:56:04.804Z,95533.89
2019-02-10T14:58:34.374Z,95532.57
2019-02-10T15:01:03.825Z,95538.92
2019-02-10T15:03:33.319Z,95525.48
2019-02-10T15:06:02.859Z,95535.97
2019-02-10T15:08:32.318Z,95525.64
2019-02-10T15:11:01.772Z,95536.63
2019-02-10T15:13:31.224Z,95524.46
2019-02-10T15:16:00.785Z,95518.70
2019-02-10T15:18:30.314Z,95519.05
2019-02-10T15:20:59.796Z,95509.05
2019-02-10T15:23:29.282Z,95505.77
2019-02-10T15:25:58.775Z,95501.52
2019-02-10T15:28:28.589Z,95488.73
2019-02-10T15:30:58.100Z,95488.39
2019-02-10T15:33:27.570Z,95493.12
2019-02-10T15:35:57.023Z,95490.48
2019-02-10T15:38:26.525Z,95505.06
2019-02-10T15:40:55.997Z,95495.53
2019-02-10T15:43:25.495Z,95505.19
2019-02-10T15:45:54.951Z,95505.02
2019-02-10T15:48:24.456Z,95514.50
2019-02-10T15:50:53.979Z,95503.50
2019-02-10T15:53:23.485Z,95477.34
2019-02-10T15:55:52.947Z,95494.34
2019-02-10T15:58:22.412Z,95498.50
2019-02-10T16:00:51.894Z,95502.72
2019-02-10T16:03:21.353Z,95497.98
2019-02-10T16:05:50.820Z,95516.31
2019-02-10T16:08:20.285Z,95499.17
2019-02-10T16:10:57.919Z,95481.83
2019-02-10T16:13:21.966Z,95458.48
2019-02-10T16:15:51.446Z,95452.59
2019-02-10T16:18:20.900Z,95468.48
2019-02-10T16:20:51.412Z,95470.84
2019-02-10T16:23:21.338Z,95466.53
2019-02-10T16:25:51.965Z,95448.67
2019-02-10T16:28:22.105Z,95416.14
2019-02-10T16:30:52.481Z,95439.91
2019-02-10T16:33:22.715Z,95431.22
2019-02-10T16:35:52.973Z,95400.26
2019-02-10T16:38:23.311Z,95377.59
2019-02-10T16:40:53.466Z,95374.79
2019-02-10T16:43:23.593Z,95347.51
2019-02-10T16:48:28.463Z,95384.13
2019-02-10T16:51:00.228Z,95402.66
2019-02-10T16:53:29.655Z,95421.47
2019-02-10T16:55:59.132Z,95447.44
2019-02-10T16:58:28.638Z,95448.95
2019-02-10T17:00:58.243Z,95411.30
2019-02-10T17:03:27.744Z,95381.58
2019-02-10T17:05:58.669Z,95383.92
2019-02-10T17:08:29.120Z,95400.03
2019-02-10T17:10:59.675Z,95406.06
2019-02-10T17:13:30.918Z,95412.83
2019-02-10T17:16:05.139Z,95427.28
2019-02-10T17:18:34.200Z,95427.28
2019-02-10T17:21:05.234Z,95426.19
2019-02-10T17:23:36.643Z,95443.97
2019-02-10T17:26:07.823Z,95468.63
2019-02-10T17:28:38.498Z,95481.05
2019-02-10T17:31:09.399Z,95495.00
2019-02-10T17:33:39.992Z,95511.25
2019-02-10T17:36:09.503Z,95533.44
2019-02-10T17:38:39.068Z,95524.14
2019-02-10T17:41:22.626Z,95551.27
2019-02-10T17:43:46.609Z,95543.62
2019-02-10T17:46:16.096Z,95570.84
2019-02-10T17:48:45.591Z,95577.66
2019-02-10T17:51:15.093Z,95594.39
2019-02-10T17:53:45.669Z,95591.97
2019-02-10T17:56:15.150Z,95606.22
2019-02-10T17:58:44.655Z,95599.56
2019-02-10T18:01:14.168Z,95585.39
2019-02-10T18:03:43.687Z,95584.41
2019-02-10T18:06:14.582Z,95579.86
2019-02-10T18:08:45.137Z,95566.41
2019-02-10T18:11:14.938Z,95570.70
2019-02-10T18:13:44.477Z,95565.48
2019-02-10T18:16:32.080Z,95564.08
2019-02-10T18:19:09.768Z,95563.55
2019-02-10T18:21:47.382Z,95574.05
2019-02-10T18:24:36.669Z,95598.02
2019-02-10T18:27:26.350Z,95616.97
2019-02-10T18:30:15.064Z,95611.15
2019-02-10T18:33:01.995Z,95613.20
2019-02-10T18:35:42.884Z,95619.59
2019-02-10T18:38:30.939Z,95626.58
2019-02-10T18:41:38.927Z,95640.87
2019-02-10T18:44:17.396Z,95639.80
2019-02-10T18:47:05.966Z,95665.61
2019-02-10T18:50:03.308Z,95663.80
2019-02-10T18:52:49.745Z,95675.62
2019-02-10T18:55:38.287Z,95670.23
2019-02-10T18:58:25.587Z,95678.29
2019-02-10T19:01:12.257Z,95673.14
2019-02-10T19:03:59.486Z,95683.81
2019-02-10T19:06:35.616Z,95687.39
2019-02-10T19:09:13.402Z,95704.39
2019-02-10T19:12:00.932Z,95705.58
2019-02-10T19:14:47.498Z,95707.49
2019-02-10T19:17:25.502Z,95726.36
2019-02-10T19:20:07.325Z,95740.33
2019-02-10T19:22:59.259Z,95754.25
2019-02-10T19:25:51.090Z,95751.69
2019-02-10T19:28:30.933Z,95782.41
2019-02-10T19:31:09.319Z,95813.55
2019-02-10T19:34:00.059Z,95843.16
2019-02-10T19:36:46.988Z,95825.48
2019-02-10T19:39:31.639Z,95834.72
2019-02-10T19:42:29.288Z,95818.00
2019-02-10T19:45:15.642Z,95843.89
2019-02-10T19:47:52.308Z,95846.12
2019-02-10T19:50:39.320Z,95839.22
2019-02-10T19:53:35.116Z,95836.22
2019-02-10T19:56:13.804Z,95836.27
2019-02-10T19:58:51.565Z,95837.50
2019-02-10T20:01:48.896Z,95847.52
2019-02-10T20:04:46.060Z,95857.17
2019-02-10T20:07:34.921Z,95873.88
2019-02-10T20:10:19.548Z,95885.86
2019-02-10T20:12:58.843Z,95888.17
2019-02-10T20:15:36.082Z,95894.50
2019-02-10T20:18:33.627Z,95894.63
2019-02-10T20:21:12.591Z,95897.08
2019-02-10T20:23:52.206Z,95909.16
2019-02-10T20:26:34.438Z,95908.77
2019-02-10T20:29:27.215Z,95918.74
2019-02-10T20:32:11.902Z,95922.80
2019-02-10T20:34:59.172Z,95919.30
2019-02-10T20:37:53.947Z,95921.93
2019-02-10T20:40:42.465Z,95935.52
2019-02-10T20:43:30.923Z,95925.74
2019-02-10T20:46:11.050Z,95934.59
2019-02-10T20:48:57.556Z,95927.08
2019-02-10T20:51:55.127Z,95906.52
2019-02-10T20:54:40.977Z,95911.33
2019-02-10T20:57:47.439Z,95915.34
2019-02-10T21:00:45.146Z,95923.23
2019-02-10T21:03:26.775Z,95928.55
2019-02-10T21:06:15.250Z,95945.29
2019-02-10T21:08:54.841Z,95935.88
2019-02-10T21:11:42.110Z,95919.06
2019-02-10T21:14:29.058Z,95907.31
2019-02-10T21:17:08.291Z,95888.21
2019-02-10T21:20:05.791Z,95887.00
2019-02-10T21:22:44.112Z,95903.02
2019-02-10T21:25:41.408Z,95903.16
2019-02-10T21:28:22.090Z,95889.75
2019-02-10T21:31:09.380Z,95872.17
2019-02-10T21:33:54.054Z,95882.82
2019-02-10T21:36:36.319Z,95884.95
2019-02-10T21:39:28.406Z,95877.53
2019-02-10T21:42:04.391Z,95894.70
2019-02-10T21:44:41.261Z,95881.77
2019-02-10T21:47:15.917Z,95877.96
2019-02-10T21:49:45.410Z,95881.62
2019-02-10T21:52:14.884Z,95875.30
2019-02-10T21:54:44.419Z,95864.38
2019-02-10T21:57:13.887Z,95874.75
2019-02-10T21:59:43.445Z,95866.68
2019-02-10T22:02:13.043Z,95867.45
2019-02-10T22:04:42.560Z,95860.49
2019-02-10T22:07:12.058Z,95866.10
2019-02-10T22:09:41.557Z,95875.41
2019-02-10T22:12:11.312Z,95891.23
2019-02-10T22:14:40.770Z,95877.75
2019-02-10T22:17:10.267Z,95884.32
2019-02-10T22:19:39.788Z,95887.40
2019-02-10T22:22:09.556Z,95864.40
2019-02-10T22:24:39.114Z,95866.45
2019-02-10T22:27:08.599Z,95876.87
2019-02-10T22:29:38.107Z,95870.13
2019-02-10T22:32:07.640Z,95858.32
2019-02-10T22:34:37.172Z,95874.74
2019-02-10T22:37:06.793Z,95858.48
2019-02-10T22:39:36.294Z,95855.44
2019-02-10T22:42:05.827Z,95886.56
2019-02-10T22:44:35.344Z,95896.06
2019-02-10T22:47:04.857Z,95882.20
2019-02-10T22:49:34.424Z,95920.19
2019-02-10T22:52:03.917Z,95919.59
2019-02-10T22:54:33.488Z,95931.11
2019-02-10T22:57:02.951Z,95954.86
2019-02-10T22:59:32.455Z,95951.55
2019-02-10T23:02:02.049Z,95952.94
2019-02-10T23:04:31.538Z,95963.83
2019-02-10T23:07:01.050Z,95969.55
2019-02-10T23:09:30.661Z,95980.45
2019-02-10T23:12:00.147Z,95965.78
2019-02-10T23:14:29.638Z,95962.07
2019-02-10T23:16:59.171Z,95982.30
2019-02-10T23:19:28.652Z,95970.97
2019-02-10T23:21:58.172Z,95988.33
2019-02-10T23:24:27.676Z,95988.50
2019-02-10T23:26:57.245Z,95998.67
2019-02-10T23:29:26.748Z,96006.02
2019-02-10T23:31:56.316Z,96001.88
2019-02-10T23:34:25.782Z,96007.08
2019-02-10T23:36:55.246Z,96009.70
2019-02-10T23:39:24.822Z,96004.33
2019-02-10T23:41:54.280Z,96022.22
2019-02-10T23:44:23.827Z,96005.05
2019-02-10T23:46:53.291Z,96025.66
2019-02-10T23:49:22.773Z,96023.07
2019-02-10T23:51:52.560Z,96024.50
2019-02-10T23:54:22.057Z,96028.71
2019-02-10T23:56:51.525Z,96019.77
2019-02-10T23:59:20.982Z,96022.01
